Delhi, Colorado
Current Conditions -  °F | °C
As of 5:54 AM on Thursday 23 Oct 2014 (Local Time) from KTAD Reporting Station
Clear Clear  
Wind Chill: 40°   Ceiling: Unl
Heat Index: 46°   Visibility: 10mi
Dew Point: 35°   Wind: 15mph
Humidity: 66%   Direction: 250°WSW
Pressure: 30.19"   Gusts: NA
Location:  37.5307°N, 104.063°W
Report Text: KTAD 231154Z AUTO 25013KT 10SM CLR 08/02 A3019 RMK AO2 SLP171 T00780017 10100 20072 53003
Loading
Personal Weather Stations






























Interactive Weather Map
Tropical Storm Tracking
New forecast layout! Learn more

10-Day Weather Forecast

Advertisements
Track Severe Weather on mobile